createdAt,value
2023-05-14T00:00:56.763Z,12.34
2023-05-14T00:03:25.556Z,12.33
2023-05-14T00:05:54.238Z,12.33
2023-05-14T00:08:22.810Z,12.34
2023-05-14T00:10:51.691Z,12.35
2023-05-14T00:13:20.316Z,12.35
2023-05-14T00:15:50.315Z,12.33
2023-05-14T00:18:19.060Z,12.32
2023-05-14T00:20:47.674Z,12.35
2023-05-14T00:23:16.234Z,12.34
2023-05-14T00:25:44.886Z,12.32
2023-05-14T00:28:13.522Z,12.34
2023-05-14T00:30:42.266Z,12.31
2023-05-14T00:33:12.221Z,12.31
2023-05-14T00:35:40.839Z,12.31
2023-05-14T00:38:09.437Z,12.29
2023-05-14T00:40:38.123Z,12.25
2023-05-14T00:43:06.706Z,12.26
2023-05-14T00:45:35.483Z,12.24
2023-05-14T00:48:04.819Z,12.24
2023-05-14T00:50:35.563Z,12.24
2023-05-14T00:53:04.184Z,12.15
2023-05-14T00:55:33.525Z,12.12
2023-05-14T00:58:02.505Z,12.02
2023-05-14T01:00:31.167Z,12.04
2023-05-14T01:03:01.444Z,12.01
2023-05-14T01:05:37.760Z,11.98
2023-05-14T01:08:12.558Z,11.94
2023-05-14T01:10:47.223Z,11.87
2023-05-14T01:13:21.014Z,11.80
2023-05-14T01:15:50.498Z,11.73
2023-05-14T01:18:20.108Z,11.73
2023-05-14T01:20:52.095Z,11.73
2023-05-14T01:23:22.080Z,11.72
2023-05-14T01:25:50.701Z,11.68
2023-05-14T01:28:20.801Z,11.65
2023-05-14T01:30:54.584Z,11.60
2023-05-14T01:33:23.628Z,11.54
2023-05-14T01:35:53.633Z,11.53
2023-05-14T01:38:24.302Z,11.46
2023-05-14T01:40:53.597Z,11.46
2023-05-14T01:43:22.426Z,11.34
2023-05-14T01:45:51.229Z,11.31
2023-05-14T01:48:19.904Z,11.28
2023-05-14T01:50:48.633Z,11.30
2023-05-14T01:53:17.234Z,11.28
2023-05-14T01:55:47.226Z,11.28
2023-05-14T01:58:15.838Z,11.28
2023-05-14T02:00:44.438Z,11.27
2023-05-14T02:03:13.180Z,11.16
2023-05-14T02:05:41.819Z,11.16
2023-05-14T02:08:10.525Z,11.15
2023-05-14T02:10:39.102Z,11.11
2023-05-14T02:13:09.610Z,11.14
2023-05-14T02:15:38.265Z,11.11
2023-05-14T02:18:07.356Z,11.13
2023-05-14T02:20:36.065Z,11.12
2023-05-14T02:23:04.722Z,11.12
2023-05-14T02:25:33.415Z,11.13
2023-05-14T02:28:03.092Z,11.14
2023-05-14T02:30:33.088Z,11.13
2023-05-14T02:33:01.763Z,11.12
2023-05-14T02:35:30.449Z,11.14
2023-05-14T02:37:59.569Z,11.12
2023-05-14T02:40:28.257Z,11.17
2023-05-14T02:42:56.886Z,11.13
2023-05-14T02:45:25.599Z,11.13
2023-05-14T02:47:55.541Z,11.14
2023-05-14T02:50:24.640Z,11.12
2023-05-14T02:52:53.494Z,11.13
2023-05-14T02:55:22.746Z,11.17
2023-05-14T02:57:53.165Z,11.11
2023-05-14T03:00:22.464Z,11.13
2023-05-14T03:02:51.666Z,11.13
2023-05-14T03:05:21.996Z,11.17
2023-05-14T03:07:51.691Z,11.17
2023-05-14T03:10:20.306Z,11.19
2023-05-14T03:12:49.364Z,11.21
2023-05-14T03:15:18.182Z,11.20
2023-05-14T03:17:46.849Z,11.22
2023-05-14T03:20:15.619Z,11.26
2023-05-14T03:22:45.667Z,11.29
2023-05-14T03:25:14.241Z,11.30
2023-05-14T03:27:42.855Z,11.26
2023-05-14T03:30:12.549Z,11.22
2023-05-14T03:32:41.371Z,11.23
2023-05-14T03:35:10.388Z,11.22
2023-05-14T03:37:39.003Z,11.19
2023-05-14T03:40:10.138Z,11.22
2023-05-14T03:42:38.757Z,11.23
2023-05-14T03:45:09.069Z,11.28
2023-05-14T03:47:37.942Z,11.29
2023-05-14T03:50:07.826Z,11.28
2023-05-14T03:52:36.716Z,11.25
2023-05-14T03:55:05.825Z,11.29
2023-05-14T03:57:36.647Z,11.27
2023-05-14T04:00:05.807Z,11.28
2023-05-14T04:02:34.515Z,11.28
2023-05-14T04:05:03.139Z,11.28
2023-05-14T04:07:31.710Z,11.29
2023-05-14T04:10:03.452Z,11.28
2023-05-14T04:12:33.174Z,11.23
2023-05-14T04:15:03.087Z,11.23
2023-05-14T04:17:31.690Z,11.23
2023-05-14T04:20:00.335Z,11.26
2023-05-14T04:22:29.007Z,11.26
2023-05-14T04:24:57.659Z,11.25
2023-05-14T04:27:26.298Z,11.25
2023-05-14T04:29:54.961Z,11.18
2023-05-14T04:32:24.923Z,11.12
2023-05-14T04:34:53.557Z,11.13
2023-05-14T04:37:22.136Z,11.13
2023-05-14T04:39:50.798Z,11.09
2023-05-14T04:42:19.452Z,11.12
2023-05-14T04:44:48.064Z,11.16
2023-05-14T04:47:16.761Z,11.20
2023-05-14T04:49:46.726Z,11.19
2023-05-14T04:52:15.364Z,11.21
2023-05-14T04:54:44.011Z,11.25
2023-05-14T04:57:12.733Z,11.27
2023-05-14T04:59:41.393Z,11.26
2023-05-14T05:02:10.022Z,11.27
2023-05-14T05:04:39.990Z,11.32
2023-05-14T05:07:09.929Z,11.34
2023-05-14T05:09:38.512Z,11.30
2023-05-14T05:12:08.178Z,11.32
2023-05-14T05:14:36.754Z,11.33
2023-05-14T05:17:05.721Z,11.34
2023-05-14T05:19:43.259Z,11.30
2023-05-14T05:22:13.922Z,11.36
2023-05-14T05:24:42.510Z,11.36
2023-05-14T05:27:11.093Z,11.42
2023-05-14T05:29:39.899Z,11.47
2023-05-14T05:32:08.934Z,11.47
2023-05-14T05:34:37.594Z,11.47
2023-05-14T05:37:06.255Z,11.46
2023-05-14T05:39:36.336Z,11.47
2023-05-14T05:42:06.703Z,11.47
2023-05-14T05:44:35.534Z,11.44
2023-05-14T05:47:04.502Z,11.46
2023-05-14T05:49:33.334Z,11.42
2023-05-14T05:52:02.112Z,11.30
2023-05-14T05:54:32.645Z,11.33
2023-05-14T05:57:02.589Z,11.34
2023-05-14T05:59:31.203Z,11.30
2023-05-14T06:02:00.018Z,11.23
2023-05-14T06:04:28.733Z,11.29
2023-05-14T06:06:57.380Z,11.31
2023-05-14T06:09:26.092Z,11.34
2023-05-14T06:11:54.688Z,11.37
2023-05-14T06:14:25.182Z,11.40
2023-05-14T06:16:54.008Z,11.38
2023-05-14T06:19:23.080Z,11.42
2023-05-14T06:21:51.679Z,11.44
2023-05-14T06:24:21.262Z,11.51
2023-05-14T06:26:49.859Z,11.64
2023-05-14T06:29:18.461Z,11.69
2023-05-14T06:31:48.520Z,11.72
2023-05-14T06:34:17.155Z,11.73
2023-05-14T06:36:45.785Z,11.75
2023-05-14T06:39:14.431Z,11.85
2023-05-14T06:41:43.197Z,11.91
2023-05-14T06:44:11.945Z,12.00
2023-05-14T06:46:40.523Z,12.05
2023-05-14T06:49:10.567Z,12.06
2023-05-14T06:51:40.679Z,12.09
2023-05-14T06:54:09.285Z,12.12
2023-05-14T06:56:37.909Z,12.21
2023-05-14T06:59:06.699Z,12.21
2023-05-14T07:01:36.221Z,12.22
2023-05-14T07:04:05.134Z,12.30
2023-05-14T07:06:35.130Z,12.32
2023-05-14T07:09:04.240Z,12.39
2023-05-14T07:11:33.382Z,12.37
2023-05-14T07:14:01.994Z,12.42
2023-05-14T07:16:30.651Z,12.48
2023-05-14T07:18:59.331Z,12.38
2023-05-14T07:21:27.932Z,12.36
2023-05-14T07:23:57.875Z,12.41
2023-05-14T07:26:26.505Z,12.52
2023-05-14T07:28:55.196Z,12.62
2023-05-14T07:31:23.892Z,12.74
2023-05-14T07:33:52.594Z,12.87
2023-05-14T07:36:21.320Z,12.65
2023-05-14T07:38:49.976Z,12.81
2023-05-14T07:41:19.869Z,12.97
2023-05-14T07:43:48.492Z,13.07
2023-05-14T07:46:17.470Z,13.06
2023-05-14T07:48:46.121Z,13.09
2023-05-14T07:51:14.778Z,13.19
2023-05-14T07:53:43.410Z,13.28
2023-05-14T07:56:12.020Z,13.37
2023-05-14T07:58:42.143Z,13.42
2023-05-14T08:01:10.782Z,13.43
2023-05-14T08:03:39.511Z,13.44
2023-05-14T08:06:08.242Z,13.44
2023-05-14T08:08:36.900Z,13.50
2023-05-14T08:11:05.787Z,13.59
2023-05-14T08:13:34.442Z,13.70
2023-05-14T08:16:04.593Z,13.83
2023-05-14T08:18:33.346Z,14.02
2023-05-14T08:21:03.479Z,14.21
2023-05-14T08:23:32.393Z,14.46
2023-05-14T08:26:01.284Z,14.76
2023-05-14T08:28:29.881Z,14.94
2023-05-14T08:30:58.563Z,15.12
2023-05-14T08:33:28.607Z,15.01
2023-05-14T08:35:58.285Z,15.22
2023-05-14T08:38:26.984Z,15.54
2023-05-14T08:40:58.050Z,15.58
2023-05-14T08:43:28.493Z,15.58
2023-05-14T08:45:59.473Z,15.49
2023-05-14T08:48:31.509Z,15.12
2023-05-14T08:51:00.563Z,14.70
2023-05-14T08:53:29.215Z,14.71
2023-05-14T08:55:57.797Z,14.64
2023-05-14T08:58:28.592Z,14.67
2023-05-14T09:00:57.289Z,14.74
2023-05-14T09:03:26.418Z,14.71
2023-05-14T09:05:57.986Z,14.71
2023-05-14T09:08:28.591Z,14.75
2023-05-14T09:10:57.193Z,14.82
2023-05-14T09:13:28.078Z,14.97
2023-05-14T09:15:57.371Z,15.17
2023-05-14T09:18:26.192Z,15.38
2023-05-14T09:20:56.232Z,15.42
2023-05-14T09:23:26.748Z,15.47
2023-05-14T09:25:56.128Z,15.53
2023-05-14T09:28:27.938Z,15.49
2023-05-14T09:30:56.558Z,15.42
2023-05-14T09:33:28.899Z,15.35
2023-05-14T09:36:01.266Z,15.29
2023-05-14T09:38:30.846Z,15.23
2023-05-14T09:40:59.730Z,15.33
2023-05-14T09:43:28.334Z,15.19
2023-05-14T09:45:56.962Z,15.19
2023-05-14T09:48:26.384Z,15.30
2023-05-14T09:50:55.038Z,15.46
2023-05-14T09:53:25.050Z,15.66
2023-05-14T09:55:53.672Z,15.76
2023-05-14T09:58:22.409Z,15.77
2023-05-14T10:00:52.091Z,15.91
2023-05-14T10:03:21.422Z,16.04
2023-05-14T10:05:51.040Z,15.99
2023-05-14T10:08:23.657Z,15.96
2023-05-14T10:10:55.326Z,15.87
2023-05-14T10:13:25.406Z,15.91
2023-05-14T10:15:58.162Z,15.84
2023-05-14T10:18:28.919Z,15.76
2023-05-14T10:21:02.757Z,15.80
2023-05-14T10:23:31.510Z,15.93
2023-05-14T10:26:01.823Z,16.08
2023-05-14T10:28:30.792Z,16.01
2023-05-14T10:31:00.817Z,16.02
2023-05-14T10:33:29.747Z,16.08
2023-05-14T10:36:00.961Z,16.36
2023-05-14T10:38:30.089Z,16.37
2023-05-14T10:41:02.360Z,16.45
2023-05-14T10:43:31.838Z,16.59
2023-05-14T10:46:01.143Z,16.67
2023-05-14T10:48:30.043Z,16.66
2023-05-14T10:50:59.179Z,16.78
2023-05-14T10:53:35.629Z,16.82
2023-05-14T10:56:07.529Z,16.89
2023-05-14T10:58:37.835Z,16.90
2023-05-14T11:01:08.292Z,16.95
2023-05-14T11:03:41.831Z,17.04
2023-05-14T11:06:11.722Z,17.20
2023-05-14T11:08:41.538Z,17.20
2023-05-14T11:11:11.698Z,17.58
2023-05-14T11:13:40.346Z,17.75
2023-05-14T11:16:21.873Z,17.73
2023-05-14T11:18:55.784Z,17.80
2023-05-14T11:21:25.352Z,18.07
2023-05-14T11:23:55.782Z,18.29
2023-05-14T11:26:26.465Z,18.62
2023-05-14T11:28:55.154Z,18.65
2023-05-14T11:31:24.285Z,18.52
2023-05-14T11:33:53.222Z,18.44
2023-05-14T11:36:21.907Z,18.34
2023-05-14T11:38:52.189Z,18.29
2023-05-14T11:41:22.891Z,18.25
2023-05-14T11:43:53.002Z,18.39
2023-05-14T11:46:21.696Z,18.72
2023-05-14T11:48:50.493Z,18.73
2023-05-14T11:51:19.190Z,18.86
2023-05-14T11:53:48.038Z,18.87
2023-05-14T11:56:16.662Z,18.63
2023-05-14T11:58:49.297Z,18.78
2023-05-14T12:01:19.521Z,18.94
2023-05-14T12:03:48.421Z,19.13
2023-05-14T12:06:17.160Z,19.50
2023-05-14T12:08:45.819Z,19.73
2023-05-14T12:11:14.414Z,20.03
2023-05-14T12:13:43.051Z,20.05
2023-05-14T12:16:11.692Z,20.16
2023-05-14T12:18:41.839Z,20.37
2023-05-14T12:21:11.986Z,20.01
2023-05-14T12:23:40.626Z,19.71
2023-05-14T12:26:10.145Z,19.48
2023-05-14T12:28:43.165Z,19.54
2023-05-14T12:31:12.276Z,19.43
2023-05-14T12:33:42.325Z,19.66
2023-05-14T12:36:21.100Z,19.86
2023-05-14T12:38:51.294Z,19.89
2023-05-14T12:41:19.874Z,19.64
2023-05-14T12:43:49.252Z,19.58
2023-05-14T12:46:18.071Z,19.44
2023-05-14T12:48:48.089Z,19.15
2023-05-14T12:51:16.741Z,18.95
2023-05-14T12:53:45.427Z,18.80
2023-05-14T12:56:14.343Z,18.73
2023-05-14T12:58:42.985Z,18.55
2023-05-14T13:01:11.676Z,18.51
2023-05-14T13:03:40.306Z,18.50
2023-05-14T13:06:10.568Z,18.27
2023-05-14T13:08:40.509Z,18.30
2023-05-14T13:11:10.131Z,18.26
2023-05-14T13:13:38.795Z,18.31
2023-05-14T13:16:07.987Z,18.28
2023-05-14T13:18:36.607Z,18.39
2023-05-14T13:21:06.370Z,18.56
2023-05-14T13:23:36.349Z,18.63
2023-05-14T13:26:04.981Z,18.52
2023-05-14T13:28:33.638Z,18.31
2023-05-14T13:31:07.814Z,18.13
2023-05-14T13:33:37.377Z,18.08
2023-05-14T13:36:06.534Z,17.89
2023-05-14T13:38:37.085Z,17.85
2023-05-14T13:41:06.131Z,17.65
2023-05-14T13:43:35.860Z,17.66
2023-05-14T13:46:05.944Z,17.87
2023-05-14T13:48:35.892Z,18.03
2023-05-14T13:51:04.777Z,18.15
2023-05-14T13:53:33.418Z,18.21
2023-05-14T13:56:03.390Z,18.14
2023-05-14T13:58:32.079Z,18.14
2023-05-14T14:01:00.857Z,18.19
2023-05-14T14:03:29.509Z,18.18
2023-05-14T14:05:58.185Z,18.27
2023-05-14T14:08:26.899Z,18.34
2023-05-14T14:10:55.791Z,18.43
2023-05-14T14:13:26.003Z,18.56
2023-05-14T14:15:54.687Z,18.71
2023-05-14T14:18:23.325Z,18.76
2023-05-14T14:20:52.593Z,18.84
2023-05-14T14:23:21.255Z,18.73
2023-05-14T14:25:49.848Z,18.63
2023-05-14T14:28:18.931Z,18.62
2023-05-14T14:30:48.900Z,18.50
2023-05-14T14:33:17.588Z,18.37
2023-05-14T14:35:47.346Z,18.22
2023-05-14T14:38:15.962Z,18.09
2023-05-14T14:40:44.614Z,17.98
2023-05-14T14:43:13.183Z,17.92
2023-05-14T14:45:42.843Z,17.91
2023-05-14T14:48:27.365Z,17.83
2023-05-14T14:50:56.387Z,17.83
2023-05-14T14:53:25.525Z,17.77
2023-05-14T14:55:55.003Z,17.64
2023-05-14T14:58:23.800Z,17.58
2023-05-14T15:00:54.485Z,17.55
2023-05-14T15:03:23.570Z,17.50
2023-05-14T15:05:54.083Z,17.51
2023-05-14T15:08:26.070Z,17.40
2023-05-14T15:10:54.744Z,17.38
2023-05-14T15:13:24.054Z,17.34
2023-05-14T15:15:52.970Z,17.35
2023-05-14T15:18:21.737Z,17.33
2023-05-14T15:20:50.674Z,17.24
2023-05-14T15:23:20.632Z,17.21
2023-05-14T15:25:49.911Z,17.21
2023-05-14T15:28:18.580Z,17.20
2023-05-14T15:30:48.410Z,17.11
2023-05-14T15:33:19.105Z,17.06
2023-05-14T15:35:47.842Z,17.05
2023-05-14T15:38:16.502Z,17.11
2023-05-14T15:40:46.472Z,17.06
2023-05-14T15:43:15.177Z,16.94
2023-05-14T15:45:45.747Z,16.91
2023-05-14T15:48:14.400Z,16.84
2023-05-14T15:50:43.490Z,16.82
2023-05-14T15:53:12.175Z,16.84
2023-05-14T15:55:41.027Z,16.84
2023-05-14T15:58:12.697Z,16.83
2023-05-14T16:00:41.442Z,16.84
2023-05-14T16:03:10.186Z,16.88
2023-05-14T16:05:38.948Z,16.97
2023-05-14T16:08:07.828Z,16.95
2023-05-14T16:10:36.551Z,16.94
2023-05-14T16:13:05.253Z,16.94
2023-05-14T16:15:35.302Z,16.91
2023-05-14T16:18:04.161Z,16.97
2023-05-14T16:20:32.851Z,16.96
2023-05-14T16:23:01.422Z,16.90
2023-05-14T16:25:30.967Z,17.01
2023-05-14T16:27:59.659Z,17.00
2023-05-14T16:30:28.277Z,17.05
2023-05-14T16:32:58.294Z,17.07
2023-05-14T16:35:26.963Z,17.02
2023-05-14T16:37:55.572Z,17.05
2023-05-14T16:40:24.561Z,17.11
2023-05-14T16:42:53.419Z,17.10
2023-05-14T16:45:22.223Z,17.16
2023-05-14T16:47:50.991Z,17.22
2023-05-14T16:50:21.262Z,17.33
2023-05-14T16:52:49.934Z,17.27
2023-05-14T16:55:19.489Z,17.29
2023-05-14T16:57:48.122Z,17.35
2023-05-14T17:00:17.879Z,17.37
2023-05-14T17:02:49.062Z,17.39
2023-05-14T17:05:17.756Z,17.36
2023-05-14T17:07:47.791Z,17.35
2023-05-14T17:10:16.439Z,17.32
2023-05-14T17:12:45.166Z,17.35
2023-05-14T17:15:13.814Z,17.32
2023-05-14T17:17:42.468Z,17.41
2023-05-14T17:20:12.471Z,17.42
2023-05-14T17:22:42.084Z,17.37
2023-05-14T17:25:12.253Z,17.34
2023-05-14T17:27:40.917Z,17.36
2023-05-14T17:30:10.506Z,17.18
2023-05-14T17:32:39.246Z,17.16
2023-05-14T17:35:09.629Z,17.10
2023-05-14T17:37:38.559Z,17.11
2023-05-14T17:40:08.293Z,17.01
2023-05-14T17:42:38.345Z,16.91
2023-05-14T17:45:08.362Z,16.86
2023-05-14T17:47:37.498Z,16.83
2023-05-14T17:50:07.176Z,16.74
2023-05-14T17:52:35.987Z,16.74
2023-05-14T17:55:05.314Z,16.81
2023-05-14T17:57:33.975Z,16.79
2023-05-14T18:00:04.769Z,16.91
2023-05-14T18:02:33.409Z,16.81
2023-05-14T18:05:02.698Z,16.76
2023-05-14T18:07:31.594Z,16.69
2023-05-14T18:10:00.233Z,16.62
2023-05-14T18:12:29.229Z,16.58
2023-05-14T18:14:57.966Z,16.50
2023-05-14T18:17:28.009Z,16.37
2023-05-14T18:19:56.628Z,16.30
2023-05-14T18:22:25.271Z,16.16
2023-05-14T18:24:53.968Z,16.07
2023-05-14T18:27:22.600Z,15.99
2023-05-14T18:29:51.891Z,15.93
2023-05-14T18:32:21.069Z,15.85
2023-05-14T18:34:51.069Z,15.77
2023-05-14T18:37:19.727Z,15.67
2023-05-14T18:39:48.344Z,15.58
2023-05-14T18:42:18.716Z,15.56
2023-05-14T18:44:47.414Z,15.49
2023-05-14T18:47:16.115Z,15.44
2023-05-14T18:49:44.769Z,15.39
2023-05-14T18:52:14.742Z,15.35
2023-05-14T18:54:43.470Z,15.26
2023-05-14T18:57:13.512Z,15.21
2023-05-14T18:59:42.194Z,15.15
2023-05-14T19:02:10.857Z,15.08
2023-05-14T19:04:51.270Z,15.02
2023-05-14T19:07:22.715Z,14.95
2023-05-14T19:09:51.297Z,14.89
2023-05-14T19:12:19.924Z,14.79
2023-05-14T19:14:48.545Z,14.72
2023-05-14T19:17:18.547Z,14.62
2023-05-14T19:19:49.127Z,14.56
2023-05-14T19:22:18.673Z,14.43
2023-05-14T19:27:18.234Z,14.36
2023-05-14T19:29:47.049Z,14.28
2023-05-14T19:32:15.709Z,14.24
2023-05-14T19:34:44.303Z,14.20
2023-05-14T19:37:13.030Z,14.16
2023-05-14T19:39:41.684Z,14.15
2023-05-14T19:42:11.704Z,14.16
2023-05-14T19:44:40.344Z,14.13
2023-05-14T19:47:09.138Z,14.08
2023-05-14T19:49:37.954Z,14.08
2023-05-14T19:52:07.328Z,14.09
2023-05-14T19:54:35.968Z,14.07
2023-05-14T19:57:04.908Z,14.07
2023-05-14T19:59:34.904Z,14.03
2023-05-14T20:02:04.686Z,13.97
2023-05-14T20:04:33.540Z,13.89
2023-05-14T20:07:02.233Z,13.86
2023-05-14T20:09:31.635Z,13.84
2023-05-14T20:12:00.412Z,13.77
2023-05-14T20:14:29.115Z,13.69
2023-05-14T20:16:59.954Z,13.64
2023-05-14T20:19:28.675Z,13.55
2023-05-14T20:21:57.301Z,13.48
2023-05-14T20:24:25.953Z,13.46
2023-05-14T20:26:54.590Z,13.45
2023-05-14T20:29:23.195Z,13.41
2023-05-14T20:31:52.231Z,13.37
2023-05-14T20:34:22.286Z,13.26
2023-05-14T20:36:50.982Z,13.25
2023-05-14T20:39:19.643Z,13.20
2023-05-14T20:41:48.291Z,13.16
2023-05-14T20:44:18.380Z,13.15
2023-05-14T20:46:48.875Z,13.08
2023-05-14T20:49:17.586Z,13.02
2023-05-14T20:51:47.568Z,12.99
2023-05-14T20:54:16.396Z,12.88
2023-05-14T20:56:45.022Z,12.87
2023-05-14T20:59:13.645Z,12.81
2023-05-14T21:01:42.667Z,12.81
2023-05-14T21:04:11.529Z,12.79
2023-05-14T21:06:40.333Z,12.78
2023-05-14T21:09:10.724Z,12.77
2023-05-14T21:11:39.421Z,12.73
2023-05-14T21:14:08.125Z,12.71
2023-05-14T21:16:36.861Z,12.70
2023-05-14T21:19:05.586Z,12.68
2023-05-14T21:21:34.292Z,12.70
2023-05-14T21:24:02.952Z,12.71
2023-05-14T21:26:33.401Z,12.76
2023-05-14T21:29:02.046Z,12.67
2023-05-14T21:31:30.778Z,12.62
2023-05-14T21:33:59.438Z,12.59
2023-05-14T21:36:29.112Z,12.58
2023-05-14T21:38:57.732Z,12.51
2023-05-14T21:41:26.503Z,12.47
2023-05-14T21:43:56.514Z,12.49
2023-05-14T21:46:25.660Z,12.47
2023-05-14T21:48:54.444Z,12.33
2023-05-14T21:51:23.410Z,12.37
2023-05-14T21:53:52.079Z,12.40
2023-05-14T21:56:21.067Z,12.41
2023-05-14T21:58:49.706Z,12.44
2023-05-14T22:01:19.666Z,12.38
2023-05-14T22:03:48.321Z,12.38
2023-05-14T22:06:16.924Z,12.38
2023-05-14T22:08:45.576Z,12.33
2023-05-14T22:11:14.209Z,12.35
2023-05-14T22:13:42.862Z,12.28
2023-05-14T22:16:14.081Z,12.29
2023-05-14T22:18:44.389Z,12.28
2023-05-14T22:21:13.060Z,12.25
2023-05-14T22:23:41.672Z,12.29
2023-05-14T22:26:10.346Z,12.33
2023-05-14T22:28:42.874Z,12.30
2023-05-14T22:31:11.599Z,12.27
2023-05-14T22:33:40.260Z,12.29
2023-05-14T22:36:10.995Z,12.32
2023-05-14T22:38:41.153Z,12.32
2023-05-14T22:41:10.436Z,12.30
2023-05-14T22:43:39.034Z,12.32
2023-05-14T22:46:07.772Z,12.31
2023-05-14T22:48:36.466Z,12.21
2023-05-14T22:51:05.255Z,12.20
2023-05-14T22:53:35.342Z,12.22
2023-05-14T22:56:04.209Z,12.23
2023-05-14T22:58:32.785Z,12.21
2023-05-14T23:01:01.390Z,12.19
2023-05-14T23:03:30.243Z,12.14
2023-05-14T23:05:58.835Z,12.10
2023-05-14T23:08:27.569Z,12.05
2023-05-14T23:10:57.565Z,12.04
2023-05-14T23:13:26.265Z,12.02
2023-05-14T23:15:54.867Z,12.03
2023-05-14T23:18:24.119Z,11.95
2023-05-14T23:20:52.780Z,11.86
2023-05-14T23:23:21.348Z,11.81
2023-05-14T23:25:50.629Z,11.71
2023-05-14T23:28:20.678Z,11.63
2023-05-14T23:30:49.325Z,11.66
2023-05-14T23:33:17.944Z,11.58
2023-05-14T23:35:46.601Z,11.58
2023-05-14T23:38:15.393Z,11.57
2023-05-14T23:40:43.978Z,11.54
2023-05-14T23:43:12.674Z,11.55
2023-05-14T23:45:42.820Z,11.46
2023-05-14T23:48:11.531Z,11.42
2023-05-14T23:50:40.072Z,11.34
2023-05-14T23:53:08.905Z,11.31
2023-05-14T23:55:37.587Z,11.28
2023-05-14T23:58:06.245Z,11.23
